Time;durP1;ratioP1;P1;durP2;ratioP2;P2;SDS_P1;SDS_P2;PMS_P1;PMS_P2;Temp;Humidity;BMP_temperature;BMP_pressure;BME280_temperature;BME280_humidity;BME280_pressure;Samples;Min_cycle;Max_cycle;Signal;HPM_P1;HPM_P2
2020/12/07 00:01:11;;;;;;;;;23.00;18.67;;;;;4.79;84.50;99010.75;5069008;28;8855;-60
2020/12/07 00:03:37;;;;;;;;;24.00;13.67;;;;;4.70;84.95;99015.66;5054836;28;8910;-57
2020/12/07 00:06:04;;;;;;;;;24.00;16.33;;;;;4.84;83.37;99018.47;5076990;28;8915;-59
2020/12/07 00:08:31;;;;;;;;;25.67;13.33;;;;;4.72;84.75;99013.78;5050068;28;8854;-60
2020/12/07 00:10:58;;;;;;;;;21.67;14.00;;;;;4.71;84.60;99012.91;5081892;28;8834;-58
2020/12/07 00:13:26;;;;;;;;;22.00;16.33;;;;;4.68;84.69;99013.06;5063716;28;8929;-59
2020/12/07 00:15:53;;;;;;;;;22.67;16.33;;;;;4.68;84.64;99020.19;5078688;28;8855;-59
2020/12/07 00:18:19;;;;;;;;;20.00;14.00;;;;;4.60;85.59;99005.44;5066241;28;8858;-59
2020/12/07 00:20:47;;;;;;;;;10.00;8.00;;;;;4.55;85.41;99007.47;5076171;28;8873;-59
2020/12/07 00:23:13;;;;;;;;;14.00;11.00;;;;;4.54;85.12;99005.75;5071045;28;8832;-60
2020/12/07 00:25:40;;;;;;;;;17.33;11.67;;;;;4.48;85.36;98999.88;5071599;28;8866;-60
2020/12/07 00:28:08;;;;;;;;;20.00;17.00;;;;;4.49;84.89;99002.44;5075707;28;8831;-58
2020/12/07 00:30:35;;;;;;;;;18.33;10.67;;;;;4.57;85.82;99005.59;5049845;28;8852;-60
2020/12/07 00:33:02;;;;;;;;;9.67;7.00;;;;;4.55;85.25;99012.78;5073868;28;8884;-61
2020/12/07 00:35:29;;;;;;;;;17.00;15.00;;;;;4.58;85.21;99012.66;5045227;28;8846;-58
2020/12/07 00:37:58;;;;;;;;;15.33;11.67;;;;;4.67;85.69;99018.47;5080652;28;9908;-60
2020/12/07 00:40:25;;;;;;;;;18.00;14.33;;;;;4.73;85.61;99020.81;5075611;28;8875;-61
2020/12/07 00:42:52;;;;;;;;;16.33;11.00;;;;;4.80;85.01;99022.25;5075467;28;8852;-60
2020/12/07 00:45:19;;;;;;;;;10.67;10.00;;;;;4.91;84.27;99017.25;5064128;28;8863;-58
2020/12/07 00:47:45;;;;;;;;;16.33;11.33;;;;;4.81;84.94;99026.63;5057318;28;8916;-58
2020/12/07 00:50:13;;;;;;;;;15.33;10.67;;;;;4.92;84.85;99026.94;5073641;28;9609;-59
2020/12/07 00:52:40;;;;;;;;;18.00;10.67;;;;;4.85;84.73;99022.88;5084899;28;8836;-60
2020/12/07 00:55:07;;;;;;;;;20.00;10.67;;;;;4.91;84.46;99017.25;5073374;28;8862;-59
2020/12/07 00:57:34;;;;;;;;;13.33;7.33;;;;;4.82;84.46;99023.03;5078943;28;8877;-59
2020/12/07 01:00:01;;;;;;;;;21.00;12.33;;;;;4.95;85.03;99018.84;5078848;28;8848;-58
2020/12/07 01:02:33;;;;;;;;;18.00;9.00;;;;;4.93;84.38;99006.56;5078132;28;8848;-56
2020/12/07 01:05:00;;;;;;;;;14.67;9.00;;;;;4.92;84.24;99008.31;5069763;28;8840;-59
2020/12/07 01:07:27;;;;;;;;;25.67;14.00;;;;;4.93;84.49;99017.19;5087287;28;8879;-59
2020/12/07 01:09:54;;;;;;;;;17.00;14.00;;;;;4.92;85.15;99010.13;5071210;28;8819;-60
2020/12/07 01:12:21;;;;;;;;;20.67;11.00;;;;;4.97;84.56;99008.97;5059138;28;8834;-59
2020/12/07 01:14:51;;;;;;;;;20.67;14.67;;;;;4.93;85.81;99010.06;5043845;28;8917;-56
2020/12/07 01:17:19;;;;;;;;;17.00;15.00;;;;;5.04;85.24;98997.09;5075050;28;8846;-60
2020/12/07 01:19:46;;;;;;;;;28.00;18.00;;;;;4.99;85.64;98995.59;5077971;28;8896;-58
2020/12/07 01:22:13;;;;;;;;;11.67;7.67;;;;;5.09;85.21;98991.53;5085016;28;8842;-60
2020/12/07 01:24:40;;;;;;;;;18.00;16.33;;;;;5.13;85.26;98992.25;5059548;28;8945;-59
2020/12/07 01:27:07;;;;;;;;;24.00;15.00;;;;;5.18;84.89;98987.53;5080434;28;8872;-59
2020/12/07 01:29:34;;;;;;;;;17.33;15.00;;;;;5.26;83.82;98986.22;5078238;28;8882;-61
2020/12/07 01:32:03;;;;;;;;;25.00;18.00;;;;;5.29;84.12;98987.84;5075738;28;8927;-59
2020/12/07 01:34:30;;;;;;;;;25.33;15.67;;;;;5.41;83.43;98992.56;5080364;28;8883;-60
2020/12/07 01:36:57;;;;;;;;;23.00;16.67;;;;;5.42;83.56;98983.63;5073474;28;8883;-58
2020/12/07 01:39:24;;;;;;;;;31.33;24.00;;;;;5.49;83.24;98979.69;5072239;28;9227;-59
2020/12/07 01:41:51;;;;;;;;;26.67;23.33;;;;;5.46;83.67;98984.34;5079866;28;8847;-59
2020/12/07 01:44:18;;;;;;;;;29.67;19.67;;;;;5.56;83.31;98995.38;5079615;28;9667;-59
2020/12/07 01:46:45;;;;;;;;;26.67;22.00;;;;;5.64;82.47;98990.50;5072505;28;8858;-60
2020/12/07 01:49:12;;;;;;;;;12.00;8.33;;;;;5.66;83.12;98991.25;5063448;28;8857;-60
2020/12/07 01:51:39;;;;;;;;;22.00;21.00;;;;;5.62;83.35;98989.72;5064204;28;8843;-61
2020/12/07 01:54:06;;;;;;;;;30.33;23.33;;;;;5.60;82.86;98980.94;5070737;28;8890;-60
2020/12/07 01:56:33;;;;;;;;;30.00;22.67;;;;;5.61;82.76;98985.31;5087913;28;8858;-61
2020/12/07 01:59:00;;;;;;;;;29.67;22.67;;;;;5.57;83.27;98976.63;5063735;28;8858;-61
2020/12/07 02:01:28;;;;;;;;;26.67;22.00;;;;;5.56;83.00;98980.25;5051246;28;8950;-58
2020/12/07 02:03:55;;;;;;;;;31.00;25.33;;;;;5.64;82.87;98982.53;5081886;28;8931;-59
2020/12/07 02:06:22;;;;;;;;;25.00;18.67;;;;;5.66;82.38;98978.84;5055127;28;8880;-60
2020/12/07 02:08:50;;;;;;;;;28.33;18.33;;;;;5.73;81.92;98976.69;5077870;28;8856;-59
2020/12/07 02:11:18;;;;;;;;;32.67;22.67;;;;;5.65;83.40;98973.56;5085761;28;8903;-57
2020/12/07 02:13:45;;;;;;;;;26.67;20.33;;;;;5.60;83.50;98975.63;5068124;28;8844;-58
2020/12/07 02:16:12;;;;;;;;;31.67;21.67;;;;;5.60;83.72;98975.63;5062248;28;8852;-60
2020/12/07 02:18:39;;;;;;;;;29.00;19.33;;;;;5.71;82.14;98979.44;5043370;28;8838;-60
2020/12/07 02:21:06;;;;;;;;;29.00;21.00;;;;;5.77;82.17;98991.56;5054992;28;8885;-61
2020/12/07 02:23:33;;;;;;;;;25.33;19.00;;;;;5.75;82.08;98989.94;5073426;28;9683;-59
2020/12/07 02:26:00;;;;;;;;;21.33;18.33;;;;;5.78;82.25;98987.97;5078618;28;8839;-60
2020/12/07 02:28:27;;;;;;;;;25.00;21.00;;;;;5.75;82.44;98993.47;5074290;28;8862;-58
2020/12/07 02:30:54;;;;;;;;;22.67;21.00;;;;;5.71;82.56;98989.22;5065993;28;8843;-58
2020/12/07 02:33:20;;;;;;;;;16.67;15.00;;;;;5.72;82.27;98980.31;5076157;28;8865;-59
2020/12/07 02:35:47;;;;;;;;;24.00;21.00;;;;;5.68;82.49;98990.25;5065088;28;8870;-60
2020/12/07 02:38:14;;;;;;;;;21.00;19.33;;;;;5.66;82.90;98993.94;5082092;28;8902;-59
2020/12/07 02:40:41;;;;;;;;;21.67;16.00;;;;;5.65;83.84;98992.22;5056635;28;9523;-58
2020/12/07 02:43:08;;;;;;;;;25.33;18.00;;;;;5.65;82.46;98984.22;5070252;28;8881;-60
2020/12/07 02:45:35;;;;;;;;;29.00;21.00;;;;;5.72;82.39;98997.16;5080938;28;8858;-59
2020/12/07 02:48:01;;;;;;;;;27.33;18.67;;;;;5.71;83.12;98994.53;5072151;28;8859;-61
2020/12/07 02:50:28;;;;;;;;;21.33;17.00;;;;;5.63;83.26;98994.94;5075560;28;8867;-59
2020/12/07 02:52:55;;;;;;;;;21.00;17.33;;;;;5.60;83.54;98997.78;5081687;28;8838;-58
2020/12/07 02:55:22;;;;;;;;;21.67;18.00;;;;;5.64;82.67;99001.16;5078246;28;8886;-59
2020/12/07 02:57:49;;;;;;;;;18.33;18.00;;;;;5.60;83.04;99000.44;5046085;28;8844;-60
2020/12/07 03:00:16;;;;;;;;;24.33;19.00;;;;;5.58;84.01;99004.13;5072922;28;8931;-60
2020/12/07 03:02:43;;;;;;;;;21.67;16.67;;;;;5.65;83.43;99002.88;5065286;28;8859;-60
2020/12/07 03:05:10;;;;;;;;;29.00;21.33;;;;;5.58;82.93;99007.66;5074331;28;9448;-60
2020/12/07 03:07:37;;;;;;;;;20.33;17.67;;;;;5.58;82.91;99009.44;5064544;28;8887;-60
2020/12/07 03:10:04;;;;;;;;;22.00;16.67;;;;;5.63;82.37;99008.25;5081382;28;8875;-59
2020/12/07 03:12:31;;;;;;;;;18.67;16.67;;;;;5.58;83.31;99004.13;5077171;28;8966;-60
2020/12/07 03:14:57;;;;;;;;;15.00;14.67;;;;;5.59;83.07;98990.75;5043911;28;9617;-60
2020/12/07 03:17:25;;;;;;;;;17.33;15.33;;;;;5.56;82.77;98990.91;5065915;28;8851;-60
2020/12/07 03:19:52;;;;;;;;;28.33;14.67;;;;;5.52;84.00;98988.47;5072773;28;8850;-59
2020/12/07 03:22:19;;;;;;;;;25.00;19.67;;;;;5.45;84.07;98993.25;5072981;28;8869;-59
2020/12/07 03:24:46;;;;;;;;;17.00;14.33;;;;;5.62;82.23;98985.25;5085080;28;8844;-59
2020/12/07 03:27:13;;;;;;;;;22.33;18.67;;;;;5.55;83.56;98983.00;5075834;28;8901;-57
2020/12/07 03:29:40;;;;;;;;;24.33;15.67;;;;;5.58;83.40;98983.72;5070625;28;8891;-58
2020/12/07 03:32:07;;;;;;;;;18.00;14.00;;;;;5.57;82.80;98989.94;5051716;28;8870;-56
2020/12/07 03:34:34;;;;;;;;;15.33;14.67;;;;;5.49;83.33;98978.84;5067214;28;8850;-59
2020/12/07 03:37:01;;;;;;;;;16.00;14.33;;;;;5.48;83.83;98985.97;5065282;28;8874;-60
2020/12/07 03:39:28;;;;;;;;;21.00;18.00;;;;;5.48;82.81;98991.31;5074052;28;8862;-59
2020/12/07 03:41:55;;;;;;;;;22.00;18.00;;;;;5.46;83.47;98979.00;5056403;28;9733;-61
2020/12/07 03:44:22;;;;;;;;;21.67;11.67;;;;;5.44;83.30;98981.75;5080260;28;8940;-59
2020/12/07 03:46:49;;;;;;;;;24.33;15.33;;;;;5.48;82.60;98985.97;5072393;28;8862;-60
2020/12/07 03:49:16;;;;;;;;;19.67;11.33;;;;;5.36;83.80;98986.59;5056888;28;8871;-59
2020/12/07 03:51:43;;;;;;;;;191.00;139.75;;;;;5.41;84.21;98986.38;5071200;28;8844;-59
2020/12/07 03:54:10;;;;;;;;;77.00;57.00;;;;;5.38;83.03;98971.41;5070887;28;8870;-59
2020/12/07 03:56:37;;;;;;;;;55.75;41.50;;;;;5.31;83.29;98975.34;5074365;28;8843;-59
2020/12/07 03:59:04;;;;;;;;;44.33;32.00;;;;;5.38;83.09;98975.88;5081408;28;8836;-59
2020/12/07 04:01:31;;;;;;;;;19.67;19.67;;;;;5.33;84.03;98961.97;5065094;28;8890;-60
2020/12/07 04:04:04;;;;;;;;;26.00;18.00;;;;;5.30;83.45;98951.47;5065657;28;8862;-59
2020/12/07 04:06:35;;;;;;;;;29.00;21.33;;;;;5.21;84.49;98956.34;5083548;28;8893;-59
2020/12/07 04:09:02;;;;;;;;;20.33;15.00;;;;;5.24;83.48;98955.31;5080082;28;8846;-60
2020/12/07 04:11:29;;;;;;;;;21.00;16.67;;;;;5.22;83.66;98954.53;5073616;28;8839;-59
2020/12/07 04:13:56;;;;;;;;;11.00;8.67;;;;;5.21;83.63;98952.78;5078623;28;8874;-59
2020/12/07 04:16:28;;;;;;;;;26.67;24.00;;;;;5.17;83.85;98952.09;5076933;28;8866;-59
2020/12/07 04:18:55;;;;;;;;;31.33;25.00;;;;;5.10;84.09;98949.81;5058987;28;10136;-59
2020/12/07 04:21:22;;;;;;;;;21.33;17.67;;;;;5.16;83.91;98965.47;5066004;28;8866;-59
2020/12/07 04:23:49;;;;;;;;;20.67;16.67;;;;;5.11;83.62;98962.19;5059928;28;8910;-60
2020/12/07 04:26:16;;;;;;;;;60.75;45.25;;;;;5.20;83.40;98959.06;5068455;28;9009;-59
2020/12/07 04:28:43;;;;;;;;;23.00;17.67;;;;;5.16;83.36;98966.34;5078337;28;8981;-58
2020/12/07 04:31:10;;;;;;;;;61.75;47.50;;;;;5.20;83.11;98959.06;5049115;28;8862;-60
2020/12/07 04:33:37;;;;;;;;;102.25;79.25;;;;;5.12;84.21;98953.28;5061845;28;8854;-60
2020/12/07 04:36:04;;;;;;;;;108.50;82.75;;;;;5.11;84.21;98956.84;5088045;28;8984;-60
2020/12/07 04:38:31;;;;;;;;;29.67;21.00;;;;;5.11;83.90;98956.84;5069670;28;8852;-60
2020/12/07 04:41:03;;;;;;;;;31.67;18.67;;;;;5.10;84.04;98960.47;5083012;28;8848;-59
2020/12/07 04:43:30;;;;;;;;;51.00;39.00;;;;;5.10;83.64;98965.78;5070375;28;8960;-59
2020/12/07 04:45:58;;;;;;;;;30.00;24.33;;;;;5.16;83.38;98968.13;5078105;28;8868;-60
2020/12/07 04:48:26;;;;;;;;;74.00;55.25;;;;;5.02;83.74;98977.69;5079536;28;8896;-59
2020/12/07 04:50:55;;;;;;;;;47.00;40.00;;;;;5.03;84.51;98974.09;5055006;28;9993;-59
2020/12/07 04:53:23;;;;;;;;;25.00;22.67;;;;;5.05;84.35;98969.56;5061623;28;8856;-59
2020/12/07 04:55:51;;;;;;;;;30.33;21.67;;;;;5.11;83.62;98978.16;5065363;28;8832;-60
2020/12/07 04:58:19;;;;;;;;;22.33;16.00;;;;;5.12;84.06;98987.88;5064060;28;8874;-59
2020/12/07 05:00:46;;;;;;;;;41.33;28.00;;;;;5.00;83.74;98992.88;5055448;28;8851;-60
2020/12/07 05:03:13;;;;;;;;;21.00;15.67;;;;;4.99;84.00;98988.47;5062933;28;8851;-58
2020/12/07 05:05:40;;;;;;;;;24.33;21.00;;;;;5.03;83.59;99002.50;5079879;28;8841;-59
2020/12/07 05:08:07;;;;;;;;;18.00;16.33;;;;;5.02;83.56;99001.63;5041953;28;8898;-59
2020/12/07 05:10:42;;;;;;;;;24.67;19.33;;;;;5.08;83.28;99011.09;5079523;28;9429;-59
2020/12/07 05:16:14;;;;;;;;;28.67;25.33;;;;;4.97;84.69;99014.28;5006019;28;8839;-59
2020/12/07 05:18:41;;;;;;;;;40.75;33.25;;;;;4.96;84.43;99012.56;5056926;28;8862;-60
2020/12/07 05:21:09;;;;;;;;;20.33;14.00;;;;;5.10;83.35;99013.69;5059870;28;8874;-59
2020/12/07 05:23:38;;;;;;;;;29.00;20.00;;;;;5.08;83.57;99021.72;5060786;28;8869;-59
2020/12/07 05:26:09;;;;;;;;;24.33;21.67;;;;;5.03;83.84;99019.31;5086116;28;9705;-59
2020/12/07 05:28:47;;;;;;;;;22.67;19.00;;;;;5.11;83.19;99032.25;5060054;28;8867;-60
2020/12/07 05:31:18;;;;;;;;;27.33;21.00;;;;;5.12;83.74;99022.47;5055813;28;8882;-59
2020/12/07 05:33:50;;;;;;;;;29.33;21.67;;;;;5.12;83.51;99023.31;5063301;28;8851;-59
2020/12/07 05:36:18;;;;;;;;;15.00;10.33;;;;;5.20;83.03;99033.56;5072895;28;8858;-60
2020/12/07 05:38:45;;;;;;;;;38.33;22.00;;;;;5.06;83.57;99031.63;5063460;28;8879;-60
2020/12/07 05:41:16;;;;;;;;;23.00;17.67;;;;;5.12;83.97;99033.97;5068362;28;8943;-60
2020/12/07 05:43:44;;;;;;;;;30.00;26.00;;;;;5.03;83.56;99032.63;5071042;28;8855;-59
2020/12/07 05:46:11;;;;;;;;;24.33;15.67;;;;;5.14;83.13;99031.22;5086148;28;8982;-59
2020/12/07 05:48:39;;;;;;;;;30.33;24.67;;;;;4.96;84.96;99031.19;5050627;28;8929;-58
2020/12/07 05:51:09;;;;;;;;;32.33;20.33;;;;;4.95;84.31;99032.16;5050713;28;8863;-60
2020/12/07 05:53:38;;;;;;;;;26.33;16.67;;;;;5.05;84.03;99033.41;5072704;28;8868;-60
2020/12/07 05:56:09;;;;;;;;;37.67;25.67;;;;;5.06;84.01;99035.13;5054000;28;8864;-59
2020/12/07 05:58:54;;;;;;;;;30.33;23.33;;;;;4.98;84.98;99032.00;5085537;28;8850;-59
2020/12/07 06:01:25;;;;;;;;;24.67;21.33;;;;;5.03;84.06;99035.28;5077113;28;8880;-59
2020/12/07 06:03:55;;;;;;;;;20.67;14.00;;;;;4.97;84.38;99032.91;5069698;28;8901;-59
2020/12/07 06:06:35;;;;;;;;;16.33;15.67;;;;;4.97;84.09;99037.38;5077407;28;8834;-61
2020/12/07 06:09:12;;;;;;;;;30.33;16.33;;;;;5.03;83.65;99051.25;5074000;28;8844;-59
2020/12/07 06:11:56;;;;;;;;;26.33;19.00;;;;;4.93;84.00;99055.28;5080047;28;8850;-59
2020/12/07 06:14:24;;;;;;;;;33.33;25.33;;;;;4.88;85.71;99062.63;5080480;28;9944;-59
2020/12/07 06:16:54;;;;;;;;;99.50;71.50;;;;;4.77;85.62;99071.13;5067101;28;8867;-59
2020/12/07 06:19:21;;;;;;;;;111.00;80.25;;;;;4.72;85.98;99078.47;5061989;28;8838;-59
2020/12/07 06:21:59;;;;;;;;;105.50;81.25;;;;;4.89;85.06;99068.81;5067794;28;8852;-58
2020/12/07 06:24:42;;;;;;;;;27.67;23.67;;;;;4.79;85.68;99084.34;5083707;28;8852;-59
2020/12/07 06:27:12;;;;;;;;;22.67;21.33;;;;;4.73;86.86;99084.63;5062429;28;8832;-59
2020/12/07 06:29:59;;;;;;;;;67.50;50.25;;;;;4.66;86.68;99088.50;5062511;28;8840;-59
2020/12/07 06:32:46;;;;;;;;;53.75;46.50;;;;;4.68;86.77;99086.66;5056222;28;8817;-60
2020/12/07 06:35:14;;;;;;;;;35.33;27.00;;;;;4.64;86.81;99093.91;5079389;28;9574;-56
2020/12/07 06:38:03;;;;;;;;;4.00;2.00;;;;;4.64;86.50;99090.41;5080157;28;8840;-58
2020/12/07 06:40:30;;;;;;;;;24.00;21.33;;;;;4.56;87.13;99094.28;5068884;28;8830;-57
2020/12/07 06:42:57;;;;;;;;;31.67;22.33;;;;;4.59;87.14;99094.13;5053151;28;8856;-59
2020/12/07 06:45:31;;;;;;;;;28.67;21.00;;;;;4.66;86.83;99092.06;5078185;28;8851;-58
2020/12/07 06:48:14;;;;;;;;;26.67;24.00;;;;;4.58;86.30;99092.41;5078287;28;8871;-57
2020/12/07 06:50:43;;;;;;;;;30.00;22.33;;;;;4.57;87.01;99095.97;5055818;28;8848;-59
2020/12/07 06:55:59;;;;;;;;;19.33;16.33;;;;;4.64;86.98;99095.72;5059827;28;8838;-58
2020/12/07 06:58:35;;;;;;;;;21.33;16.33;;;;;4.65;87.75;99102.75;5059915;28;8880;-58
2020/12/07 07:01:09;;;;;;;;;68.25;50.25;;;;;4.54;87.65;99101.44;5069166;28;8874;-57
2020/12/07 07:03:51;;;;;;;;;47.00;37.33;;;;;4.65;87.17;99103.59;5060240;28;8870;-55
2020/12/07 07:06:20;;;;;;;;;33.33;24.00;;;;;4.70;87.21;99109.56;5070441;28;8832;-56
2020/12/07 07:08:49;;;;;;;;;21.67;17.33;;;;;4.70;87.02;99111.38;5061160;28;8864;-58
2020/12/07 07:11:17;;;;;;;;;29.33;25.00;;;;;4.66;87.47;99108.00;5066641;28;8884;-56
2020/12/07 07:13:50;;;;;;;;;22.33;19.67;;;;;4.62;87.22;99109.94;5049882;28;8862;-58
2020/12/07 07:16:18;;;;;;;;;71.50;54.00;;;;;4.55;87.27;99113.78;5080567;28;8997;-60
2020/12/07 07:18:46;;;;;;;;;25.33;18.33;;;;;4.73;86.83;99105.91;5061866;28;8846;-59
2020/12/07 07:21:13;;;;;;;;;51.75;38.75;;;;;4.61;86.43;99108.22;5078727;28;8836;-60
2020/12/07 07:23:43;;;;;;;;;50.25;35.50;;;;;4.69;86.96;99109.66;5060794;28;8867;-59
2020/12/07 07:26:26;;;;;;;;;33.33;28.00;;;;;4.64;87.32;99095.72;5061410;28;8856;-56
2020/12/07 07:28:53;;;;;;;;;33.33;28.33;;;;;4.59;86.64;99103.91;5052772;28;8966;-59
2020/12/07 07:31:20;;;;;;;;;28.00;24.00;;;;;4.65;87.98;99102.75;5057767;28;8941;-56
2020/12/07 07:33:47;;;;;;;;;30.00;23.33;;;;;4.67;87.04;99111.53;5066280;28;8840;-62
2020/12/07 07:36:26;;;;;;;;;21.67;13.33;;;;;4.65;87.11;99110.72;5071524;28;8836;-58
2020/12/07 07:38:55;;;;;;;;;17.33;12.33;;;;;4.81;86.33;99107.25;5063004;28;8857;-57
2020/12/07 07:41:24;;;;;;;;;20.00;16.00;;;;;4.85;86.74;99108.00;5071275;28;8863;-58
2020/12/07 07:43:52;;;;;;;;;17.67;15.67;;;;;4.83;86.06;99109.88;5068619;28;9984;-56
2020/12/07 07:46:20;;;;;;;;;20.33;18.33;;;;;4.80;86.42;99118.00;5065168;28;9011;-56
2020/12/07 08:16:22;;;;;;;;;14.33;9.67;;;;;4.95;85.16;99130.56;5060771;28;8840;-59
2020/12/07 08:18:57;;;;;;;;;13.33;11.33;;;;;4.98;84.37;99135.75;5062704;28;8847;-60
2020/12/07 08:21:32;;;;;;;;;15.67;14.00;;;;;4.99;84.76;99145.44;5085997;28;8894;-58
2020/12/07 08:24:10;;;;;;;;;17.67;14.33;;;;;5.14;85.14;99140.34;5065116;28;8832;-60
2020/12/07 08:26:44;;;;;;;;;20.33;14.33;;;;;5.18;83.80;99142.75;5062067;28;8876;-59
2020/12/07 08:29:12;;;;;;;;;19.00;17.33;;;;;5.13;83.78;99149.22;5082446;28;8874;-60
2020/12/07 08:31:41;;;;;;;;;24.33;18.33;;;;;5.10;85.04;99146.72;5063272;28;8864;-59
2020/12/07 08:34:14;;;;;;;;;122.50;108.50;;;;;5.31;83.67;99151.00;5067664;28;8881;-59
2020/12/07 08:36:45;;;;;;;;;203.50;164.00;;;;;5.21;83.75;99158.59;5068743;28;8925;-58
2020/12/07 08:39:13;;;;;;;;;77.25;59.50;;;;;5.37;83.43;99163.16;5069437;28;8962;-57
2020/12/07 08:41:40;;;;;;;;;56.50;45.50;;;;;5.27;82.43;99168.94;5060460;28;8846;-59
2020/12/07 08:44:10;;;;;;;;;33.33;26.00;;;;;5.44;82.32;99173.41;5069287;28;8828;-60
2020/12/07 08:46:41;;;;;;;;;19.00;13.33;;;;;5.43;82.99;99171.72;5060645;28;8862;-59
2020/12/07 08:49:08;;;;;;;;;34.33;28.00;;;;;5.39;83.35;99167.47;5082009;28;8862;-59
2020/12/07 08:51:37;;;;;;;;;42.67;35.00;;;;;5.48;83.35;99167.03;5060209;28;8980;-59
2020/12/07 08:54:05;;;;;;;;;50.00;42.67;;;;;5.55;83.20;99172.03;5060468;28;8839;-58
2020/12/07 08:56:32;;;;;;;;;16.00;15.33;;;;;5.45;82.62;99176.94;5055184;28;9569;-59
2020/12/07 08:58:59;;;;;;;;;37.67;32.67;;;;;5.43;83.12;99177.03;5058840;28;8855;-59
2020/12/07 09:01:26;;;;;;;;;20.00;16.00;;;;;5.46;81.31;99171.56;5079580;28;8862;-59
2020/12/07 09:03:53;;;;;;;;;55.25;40.25;;;;;5.46;81.76;99163.56;5071545;28;8906;-59
2020/12/07 09:06:21;;;;;;;;;67.75;48.25;;;;;5.41;82.56;99165.59;5071188;28;8835;-61
2020/12/07 09:08:48;;;;;;;;;60.25;45.75;;;;;5.35;82.58;99168.56;5072210;28;9933;-60
2020/12/07 09:11:18;;;;;;;;;48.67;36.00;;;;;5.35;82.00;99168.56;5088746;28;8859;-58
2020/12/07 09:13:46;;;;;;;;;100.75;77.50;;;;;5.48;81.63;99160.84;5056285;28;8855;-60
2020/12/07 09:16:13;;;;;;;;;55.75;44.00;;;;;5.57;82.09;99170.16;5077152;28;8972;-60
2020/12/07 09:18:40;;;;;;;;;70.50;50.50;;;;;5.80;81.28;99164.56;5068187;28;8848;-60
2020/12/07 09:21:08;;;;;;;;;13.67;13.00;;;;;5.48;81.42;99159.03;5047711;28;8866;-59
2020/12/07 09:23:38;;;;;;;;;33.67;29.67;;;;;5.52;82.08;99161.53;5081427;28;8963;-61
2020/12/07 09:26:06;;;;;;;;;41.00;31.33;;;;;5.59;82.20;99149.66;5067642;28;8842;-58
2020/12/07 09:28:35;;;;;;;;;21.67;16.67;;;;;5.74;82.42;99148.91;5059958;28;8870;-60
2020/12/07 09:31:06;;;;;;;;;17.33;11.67;;;;;5.52;82.80;99151.75;5061382;28;8961;-60
2020/12/07 09:33:35;;;;;;;;;13.33;11.33;;;;;5.36;82.25;99154.31;5064966;28;8897;-60
2020/12/07 09:36:03;;;;;;;;;35.00;26.00;;;;;5.56;83.32;99155.13;5044602;28;9556;-60
2020/12/07 09:38:31;;;;;;;;;38.33;31.67;;;;;5.66;82.64;99157.28;5071018;28;8840;-61
2020/12/07 09:40:58;;;;;;;;;25.67;23.00;;;;;5.74;81.76;99154.22;5086162;28;8828;-60
2020/12/07 09:43:26;;;;;;;;;18.33;15.00;;;;;5.59;82.07;99154.97;5071517;28;8842;-60
2020/12/07 09:45:53;;;;;;;;;21.33;15.33;;;;;5.38;82.99;99152.44;5053806;28;8854;-59
2020/12/07 09:48:20;;;;;;;;;16.67;12.67;;;;;5.54;82.52;99162.34;5053242;28;8856;-60
2020/12/07 09:50:47;;;;;;;;;26.33;24.33;;;;;5.49;82.29;99143.91;5065660;28;8838;-60
2020/12/07 09:53:18;;;;;;;;;26.33;21.00;;;;;5.32;82.87;99157.19;5077898;28;8838;-59
2020/12/07 09:55:46;;;;;;;;;25.67;19.00;;;;;5.45;83.19;99153.88;5050292;28;8850;-58
2020/12/07 09:58:14;;;;;;;;;22.00;18.67;;;;;5.41;81.67;99160.25;5077713;28;8836;-60
2020/12/07 10:00:41;;;;;;;;;17.33;16.00;;;;;5.28;82.63;99161.81;5055066;28;8966;-60
2020/12/07 10:03:08;;;;;;;;;21.33;18.00;;;;;5.42;82.89;99161.97;5077688;28;8868;-59
2020/12/07 10:05:35;;;;;;;;;28.67;20.33;;;;;5.40;82.67;99166.53;5067835;28;8832;-60
2020/12/07 10:08:02;;;;;;;;;25.67;21.00;;;;;5.53;83.14;99160.59;5059215;28;8858;-60
2020/12/07 10:10:29;;;;;;;;;9.67;7.33;;;;;5.46;83.18;99166.22;5067248;28;8828;-61
2020/12/07 10:13:04;;;;;;;;;17.33;12.00;;;;;5.40;82.72;99171.88;5060438;28;8863;-58
2020/12/07 10:15:31;;;;;;;;;20.33;14.67;;;;;5.38;82.66;99162.22;5076854;28;9616;-60
2020/12/07 10:17:58;;;;;;;;;18.00;15.67;;;;;5.48;82.74;99164.34;5072646;28;8855;-60
2020/12/07 10:20:25;;;;;;;;;28.00;22.00;;;;;5.58;82.10;99166.56;5054164;28;8860;-61
2020/12/07 10:22:52;;;;;;;;;16.67;16.00;;;;;5.66;82.66;99164.38;5079313;28;8851;-59
2020/12/07 10:25:19;;;;;;;;;21.67;16.00;;;;;5.72;82.23;99161.41;5054065;28;8836;-59
2020/12/07 10:27:45;;;;;;;;;23.67;15.67;;;;;5.54;82.59;99165.84;5077350;28;8860;-59
2020/12/07 10:30:12;;;;;;;;;25.00;16.67;;;;;5.66;83.14;99167.03;5079636;28;8899;-56
2020/12/07 10:32:39;;;;;;;;;21.33;18.00;;;;;5.67;83.70;99164.31;5080132;28;8835;-60
2020/12/07 10:35:06;;;;;;;;;19.00;15.00;;;;;5.66;83.18;99156.38;5078143;28;8842;-61
2020/12/07 10:37:33;;;;;;;;;22.00;15.00;;;;;5.73;83.86;99155.13;5074283;28;8874;-60
2020/12/07 10:40:00;;;;;;;;;20.33;16.67;;;;;5.86;82.98;99158.91;5067135;28;8823;-59
2020/12/07 10:42:26;;;;;;;;;18.33;17.33;;;;;5.72;84.26;99156.09;5076561;28;9667;-58
2020/12/07 10:44:54;;;;;;;;;26.33;22.67;;;;;5.88;84.28;99159.69;5083091;28;8859;-59
2020/12/07 10:47:21;;;;;;;;;18.00;13.33;;;;;5.71;84.43;99159.69;5078103;28;8855;-60
2020/12/07 10:49:47;;;;;;;;;26.67;21.67;;;;;6.07;84.99;99172.13;5062002;28;8851;-61
2020/12/07 10:52:14;;;;;;;;;18.00;13.33;;;;;5.73;84.50;99165.78;5066877;28;8840;-60
2020/12/07 10:54:41;;;;;;;;;89.50;66.25;;;;;5.64;84.41;99164.47;5077948;28;8982;-61
2020/12/07 10:57:08;;;;;;;;;22.67;19.00;;;;;5.65;84.18;99162.66;5077979;28;8828;-58
2020/12/07 10:59:35;;;;;;;;;62.75;46.75;;;;;5.58;85.18;99164.78;5085631;28;8836;-57
2020/12/07 11:02:01;;;;;;;;;111.50;89.00;;;;;5.55;86.27;99154.25;5074191;28;8864;-57
2020/12/07 11:04:28;;;;;;;;;88.00;67.50;;;;;5.40;86.26;99161.22;5049663;28;8855;-59
2020/12/07 11:06:58;;;;;;;;;32.00;25.00;;;;;5.52;85.95;99161.53;5073646;28;8900;-60
2020/12/07 11:09:24;;;;;;;;;52.00;42.75;;;;;5.50;86.38;99167.81;5067634;28;9675;-60
2020/12/07 11:11:58;;;;;;;;;45.00;35.00;;;;;5.55;87.12;99164.03;5078714;28;8860;-59
2020/12/07 11:14:25;;;;;;;;;66.00;53.00;;;;;5.40;86.87;99166.53;5066923;28;8824;-60
2020/12/07 11:16:53;;;;;;;;;48.25;42.25;;;;;5.31;87.59;99166.13;5063951;28;8953;-61
2020/12/07 11:19:21;;;;;;;;;83.25;58.50;;;;;5.25;87.21;99161.97;5077889;28;9704;-61
2020/12/07 11:21:48;;;;;;;;;89.75;65.75;;;;;5.15;87.03;99152.69;5065599;28;8828;-60
2020/12/07 11:24:15;;;;;;;;;61.75;43.50;;;;;5.28;87.17;99164.47;5078419;28;9589;-61
2020/12/07 11:26:42;;;;;;;;;38.67;29.33;;;;;5.06;86.54;99162.84;5075468;28;8830;-59
2020/12/07 11:29:09;;;;;;;;;35.67;25.00;;;;;5.17;87.12;99164.13;5064846;28;8889;-60
2020/12/07 11:31:36;;;;;;;;;31.00;28.00;;;;;5.11;87.62;99162.63;5079480;28;8862;-58
2020/12/07 11:34:03;;;;;;;;;37.33;32.00;;;;;5.19;87.71;99163.13;5056599;28;8889;-60
2020/12/07 11:36:30;;;;;;;;;62.00;46.75;;;;;4.96;87.60;99169.53;5080888;28;8843;-59
2020/12/07 11:46:47;;;;;;;;;62.50;42.25;;;;;4.96;87.55;99172.19;5070654;28;8855;-59
2020/12/07 11:49:14;;;;;;;;;72.75;55.75;;;;;4.96;88.57;99174.00;5085817;28;8943;-59
2020/12/07 11:51:42;;;;;;;;;36.67;28.00;;;;;5.06;88.27;99178.81;5078363;28;8887;-58
2020/12/07 11:54:09;;;;;;;;;38.67;27.33;;;;;5.05;88.28;99173.53;5077667;28;8913;-62
2020/12/07 11:56:38;;;;;;;;;77.75;60.00;;;;;4.88;89.22;99179.66;5086720;28;8878;-58
2020/12/07 11:59:06;;;;;;;;;71.25;55.25;;;;;4.82;88.62;99182.63;5057224;28;8873;-58
2020/12/07 12:01:34;;;;;;;;;77.25;55.75;;;;;4.79;88.89;99180.06;5077276;28;8852;-61
2020/12/07 12:04:02;;;;;;;;;59.50;47.00;;;;;4.79;90.02;99180.06;5050386;28;8854;-60
2020/12/07 12:06:35;;;;;;;;;76.00;58.25;;;;;4.83;90.25;99181.66;5067440;28;9631;-58
2020/12/07 12:09:10;;;;;;;;;54.75;42.00;;;;;4.91;89.20;99173.34;5076567;28;8883;-58
2020/12/07 12:11:39;;;;;;;;;87.50;62.75;;;;;4.81;89.68;99178.22;5078101;28;8868;-59
2020/12/07 12:14:09;;;;;;;;;52.25;40.50;;;;;4.69;89.74;99170.81;5059931;28;8860;-59
2020/12/07 12:16:38;;;;;;;;;64.25;44.00;;;;;4.84;90.11;99167.44;5058698;28;8832;-59
2020/12/07 12:19:08;;;;;;;;;96.75;67.00;;;;;4.62;90.12;99171.06;5059266;28;8894;-54
2020/12/07 12:21:37;;;;;;;;;33.00;28.33;;;;;4.73;90.76;99169.72;5059043;28;8859;-59